Happy Valley, Oregon
Current Conditions -  °F | °C
As of 4:41 AM on Tuesday 27 Jan 2015 (Local Time) from KTTD Reporting Station
Overcast Overcast  
Wind Chill: 39°   Ceiling: 400
Heat Index: 42°   Visibility: 10mi
Dew Point: 40°   Wind: 5mph
Humidity: 92%   Direction: 130°SE
Pressure: 30.03"   Gusts: NA
Location:  45.45°N, 122.53°W
Report Text: KTTD 271241Z AUTO 13004KT 10SM OVC004 06/04 A3003 RMK AO2 T00560044
Loading
Personal Weather Stations






























Interactive Weather Map New forecast layout! Learn more

10-Day Weather Forecast

Advertisements
Track Severe Weather on mobile